createdAt,value
2023-01-26T00:02:02.778Z,18.25
2023-01-26T00:04:30.540Z,17.98
2023-01-26T00:06:57.970Z,20.05
2023-01-26T00:09:43.915Z,19.73
2023-01-26T00:12:11.717Z,18.65
2023-01-26T00:14:51.236Z,18.45
2023-01-26T00:17:30.526Z,17.75
2023-01-26T00:19:58.600Z,17.95
2023-01-26T00:22:27.742Z,16.55
2023-01-26T00:24:55.327Z,17.25
2023-01-26T00:27:22.734Z,17.25
2023-01-26T00:29:50.500Z,16.98
2023-01-26T00:32:17.920Z,17.73
2023-01-26T00:34:45.440Z,18.10
2023-01-26T00:37:13.126Z,17.27
2023-01-26T00:39:41.143Z,17.45
2023-01-26T00:42:11.207Z,17.55
2023-01-26T00:44:39.535Z,19.00
2023-01-26T00:47:08.298Z,17.80
2023-01-26T00:49:35.826Z,16.00
2023-01-26T00:52:03.855Z,16.87
2023-01-26T00:54:31.476Z,17.62
2023-01-26T00:56:58.914Z,17.40
2023-01-26T00:59:26.670Z,17.02
2023-01-26T01:01:54.422Z,17.27
2023-01-26T01:04:21.903Z,18.90
2023-01-26T01:06:49.625Z,17.60
2023-01-26T01:09:18.223Z,18.67
2023-01-26T01:11:46.150Z,17.73
2023-01-26T01:14:15.676Z,19.12
2023-01-26T01:16:45.498Z,22.50
2023-01-26T01:19:16.542Z,19.98
2023-01-26T01:21:44.800Z,19.12
2023-01-26T01:24:12.652Z,18.58
2023-01-26T01:26:40.375Z,17.70
2023-01-26T01:29:10.042Z,17.70
2023-01-26T01:31:37.935Z,18.10
2023-01-26T01:34:05.529Z,17.05
2023-01-26T01:36:33.322Z,16.92
2023-01-26T01:39:01.279Z,17.27
2023-01-26T01:41:28.878Z,18.60
2023-01-26T01:44:17.780Z,16.75
2023-01-26T01:46:48.915Z,18.20
2023-01-26T01:49:39.276Z,15.90
2023-01-26T01:52:17.668Z,16.90
2023-01-26T01:54:50.765Z,18.55
2023-01-26T01:57:27.875Z,17.33
2023-01-26T02:00:00.157Z,19.12
2023-01-26T02:02:27.724Z,17.77
2023-01-26T02:04:59.057Z,18.50
2023-01-26T02:07:28.487Z,17.95
2023-01-26T02:10:15.982Z,18.67
2023-01-26T02:12:43.984Z,16.73
2023-01-26T02:15:13.444Z,16.42
2023-01-26T02:17:40.947Z,16.02
2023-01-26T02:20:28.582Z,16.25
2023-01-26T02:23:21.261Z,15.57
2023-01-26T02:25:54.892Z,16.05
2023-01-26T02:28:25.737Z,16.08
2023-01-26T02:30:54.384Z,17.73
2023-01-26T02:33:24.685Z,16.73
2023-01-26T02:35:52.915Z,15.52
2023-01-26T02:38:22.056Z,14.95
2023-01-26T02:40:59.293Z,14.70
2023-01-26T02:43:27.959Z,14.95
2023-01-26T02:45:56.515Z,14.05
2023-01-26T02:48:42.892Z,15.00
2023-01-26T02:51:10.860Z,14.43
2023-01-26T02:53:38.278Z,14.77
2023-01-26T02:56:06.042Z,14.77
2023-01-26T02:58:34.342Z,17.20
2023-01-26T03:01:01.900Z,18.50
2023-01-26T03:03:41.770Z,18.23
2023-01-26T03:06:10.942Z,22.33
2023-01-26T03:08:38.743Z,22.48
2023-01-26T03:11:07.566Z,20.12
2023-01-26T03:13:35.831Z,23.83
2023-01-26T03:16:07.471Z,21.87
2023-01-26T03:18:54.548Z,21.95
2023-01-26T03:21:41.471Z,21.00
2023-01-26T03:24:31.388Z,19.25
2023-01-26T03:27:18.285Z,16.17
2023-01-26T03:29:46.185Z,15.70
2023-01-26T03:32:14.063Z,15.27
2023-01-26T03:34:42.054Z,15.40
2023-01-26T03:37:10.181Z,14.68
2023-01-26T03:39:56.198Z,15.80
2023-01-26T03:42:43.131Z,16.00
2023-01-26T03:45:30.218Z,15.50
2023-01-26T03:48:30.698Z,16.15
2023-01-26T03:51:17.693Z,14.38
2023-01-26T03:54:04.009Z,14.63
2023-01-26T03:56:34.464Z,15.43
2023-01-26T03:59:12.332Z,14.50
2023-01-26T04:01:42.481Z,13.35
2023-01-26T04:04:29.750Z,12.98
2023-01-26T04:07:15.820Z,14.68
2023-01-26T04:09:44.654Z,12.82
2023-01-26T04:12:14.124Z,13.13
2023-01-26T04:15:00.874Z,11.65
2023-01-26T04:17:47.323Z,11.68
2023-01-26T04:20:33.618Z,11.02
2023-01-26T04:23:01.442Z,11.65
2023-01-26T04:25:29.118Z,11.75
2023-01-26T04:27:57.030Z,11.52
2023-01-26T04:30:24.915Z,12.20
2023-01-26T04:32:52.894Z,12.93
2023-01-26T04:35:20.300Z,12.10
2023-01-26T04:37:48.545Z,11.07
2023-01-26T04:40:16.162Z,10.15
2023-01-26T04:42:43.885Z,11.02
2023-01-26T04:45:12.349Z,9.85
2023-01-26T04:47:39.919Z,10.73
2023-01-26T04:50:08.284Z,10.63
2023-01-26T04:52:36.101Z,9.95
2023-01-26T04:55:03.714Z,9.52
2023-01-26T04:57:31.817Z,9.68
2023-01-26T05:00:01.055Z,9.90
2023-01-26T05:02:28.979Z,9.93
2023-01-26T05:04:56.855Z,10.02
2023-01-26T05:07:24.739Z,10.70
2023-01-26T05:09:53.018Z,10.48
2023-01-26T05:12:34.689Z,9.77
2023-01-26T05:15:03.801Z,9.82
2023-01-26T05:17:31.530Z,10.35
2023-01-26T05:19:59.702Z,10.30
2023-01-26T05:22:28.004Z,11.70
2023-01-26T05:24:57.708Z,9.48
2023-01-26T05:27:25.322Z,11.02
2023-01-26T05:29:54.997Z,9.75
2023-01-26T05:32:23.085Z,10.23
2023-01-26T05:34:50.523Z,10.43
2023-01-26T05:37:18.575Z,10.32
2023-01-26T05:39:46.946Z,10.93
2023-01-26T05:42:14.455Z,11.95
2023-01-26T05:44:43.331Z,10.35
2023-01-26T05:47:10.941Z,11.45
2023-01-26T05:49:41.592Z,12.20
2023-01-26T05:52:14.946Z,11.30
2023-01-26T05:54:43.654Z,11.75
2023-01-26T05:57:12.139Z,11.93
2023-01-26T05:59:39.954Z,10.88
2023-01-26T06:02:07.821Z,11.98
2023-01-26T06:04:36.241Z,13.35
2023-01-26T06:07:04.001Z,12.80
2023-01-26T06:09:32.048Z,12.48
2023-01-26T06:12:00.925Z,12.13
2023-01-26T06:14:28.507Z,12.45
2023-01-26T06:16:56.872Z,11.38
2023-01-26T06:19:25.179Z,11.55
2023-01-26T06:21:53.510Z,11.68
2023-01-26T06:24:21.327Z,11.48
2023-01-26T06:26:50.542Z,12.18
2023-01-26T06:29:18.200Z,11.60
2023-01-26T06:31:45.659Z,11.25
2023-01-26T06:34:13.698Z,11.00
2023-01-26T06:36:41.666Z,11.45
2023-01-26T06:39:10.579Z,11.65
2023-01-26T06:41:38.868Z,11.60
2023-01-26T06:44:06.872Z,11.07
2023-01-26T06:46:34.943Z,10.65
2023-01-26T06:49:03.707Z,10.52
2023-01-26T06:51:46.606Z,11.55
2023-01-26T06:54:15.366Z,10.10
2023-01-26T06:56:43.516Z,10.25
2023-01-26T06:59:11.394Z,11.38
2023-01-26T07:01:42.125Z,10.90
2023-01-26T07:04:09.556Z,10.32
2023-01-26T07:06:37.224Z,10.43
2023-01-26T07:09:05.204Z,9.57
2023-01-26T07:11:32.854Z,9.43
2023-01-26T07:14:00.315Z,8.88
2023-01-26T07:16:28.287Z,9.32
2023-01-26T07:18:55.884Z,9.40
2023-01-26T07:21:23.780Z,9.77
2023-01-26T07:23:53.275Z,9.70
2023-01-26T07:26:21.597Z,9.27
2023-01-26T07:28:49.041Z,9.70
2023-01-26T07:31:17.028Z,8.30
2023-01-26T07:33:44.729Z,9.68
2023-01-26T07:36:12.444Z,9.70
2023-01-26T07:38:40.696Z,9.65
2023-01-26T07:41:11.364Z,9.02
2023-01-26T07:43:39.421Z,9.10
2023-01-26T07:46:10.639Z,8.95
2023-01-26T07:48:38.449Z,8.93
2023-01-26T07:51:07.169Z,9.63
2023-01-26T07:53:39.754Z,9.02
2023-01-26T07:56:12.824Z,9.38
2023-01-26T07:58:40.726Z,9.68
2023-01-26T08:01:13.719Z,8.85
2023-01-26T08:03:42.007Z,9.02
2023-01-26T08:06:13.025Z,8.63
2023-01-26T08:08:43.199Z,9.40
2023-01-26T08:11:11.586Z,8.98
2023-01-26T08:13:39.208Z,8.50
2023-01-26T08:16:10.894Z,9.60
2023-01-26T08:18:39.466Z,8.90
2023-01-26T08:21:07.229Z,9.00
2023-01-26T08:23:34.727Z,9.02
2023-01-26T08:26:07.836Z,8.73
2023-01-26T08:28:36.795Z,8.73
2023-01-26T08:31:22.736Z,8.50
2023-01-26T08:33:51.868Z,9.20
2023-01-26T08:36:22.130Z,9.98
2023-01-26T08:38:51.510Z,9.88
2023-01-26T08:41:19.521Z,9.70
2023-01-26T08:43:47.022Z,9.18
2023-01-26T08:46:15.166Z,9.27
2023-01-26T08:48:42.586Z,10.23
2023-01-26T08:51:10.011Z,10.25
2023-01-26T08:53:37.942Z,9.32
2023-01-26T08:56:07.180Z,8.15
2023-01-26T08:58:35.702Z,9.82
2023-01-26T09:01:08.556Z,9.52
2023-01-26T09:03:36.358Z,9.25
2023-01-26T09:06:05.634Z,8.75
2023-01-26T09:08:33.161Z,9.40
2023-01-26T09:11:01.185Z,8.45
2023-01-26T09:13:28.911Z,8.82
2023-01-26T09:15:56.401Z,9.93
2023-01-26T09:18:24.078Z,10.15
2023-01-26T09:20:51.865Z,8.50
2023-01-26T09:23:20.673Z,8.35
2023-01-26T09:25:53.320Z,7.82
2023-01-26T09:28:21.055Z,9.00
2023-01-26T09:30:48.573Z,8.65
2023-01-26T09:33:16.041Z,9.27
2023-01-26T09:35:43.713Z,8.90
2023-01-26T09:38:11.116Z,8.75
2023-01-26T09:41:00.177Z,9.80
2023-01-26T09:43:51.636Z,7.90
2023-01-26T09:46:24.948Z,8.68
2023-01-26T09:49:02.020Z,8.57
2023-01-26T09:51:38.325Z,8.18
2023-01-26T09:54:38.498Z,9.10
2023-01-26T09:57:13.716Z,9.25
2023-01-26T10:00:05.699Z,8.13
2023-01-26T10:03:05.322Z,9.15
2023-01-26T10:05:35.867Z,9.55
2023-01-26T10:08:17.694Z,9.35
2023-01-26T10:11:02.565Z,10.85
2023-01-26T10:13:31.067Z,9.95
2023-01-26T10:16:02.247Z,9.43
2023-01-26T10:18:33.392Z,10.60
2023-01-26T10:21:03.852Z,9.52
2023-01-26T10:23:33.674Z,9.68
2023-01-26T10:26:13.428Z,8.88
2023-01-26T10:28:42.648Z,9.60
2023-01-26T10:31:19.023Z,11.57
2023-01-26T10:33:57.213Z,11.63
2023-01-26T10:36:25.220Z,13.00
2023-01-26T10:38:52.690Z,12.10
2023-01-26T10:41:20.122Z,12.80
2023-01-26T10:43:55.819Z,12.20
2023-01-26T10:46:24.434Z,13.10
2023-01-26T10:48:55.013Z,12.50
2023-01-26T10:51:26.900Z,10.30
2023-01-26T10:54:21.074Z,12.48
2023-01-26T10:56:49.519Z,14.13
2023-01-26T10:59:25.230Z,15.52
2023-01-26T11:02:12.929Z,14.55
2023-01-26T11:04:41.305Z,15.68
2023-01-26T11:07:20.809Z,14.68
2023-01-26T11:09:49.692Z,11.98
2023-01-26T11:12:23.942Z,13.27
2023-01-26T11:15:04.067Z,13.52
2023-01-26T11:17:47.153Z,13.13
2023-01-26T11:20:17.790Z,12.30
2023-01-26T11:23:25.734Z,11.88
2023-01-26T11:26:17.668Z,11.12
2023-01-26T11:28:52.459Z,11.65
2023-01-26T11:31:39.576Z,11.00
2023-01-26T11:34:19.356Z,10.80
2023-01-26T11:37:15.165Z,11.75
2023-01-26T11:39:54.580Z,11.57
2023-01-26T11:42:44.899Z,11.68
2023-01-26T11:45:22.341Z,10.70
2023-01-26T11:47:55.966Z,10.98
2023-01-26T11:50:26.705Z,11.70
2023-01-26T11:53:16.285Z,11.20
2023-01-26T11:55:50.061Z,11.52
2023-01-26T11:58:20.665Z,10.73
2023-01-26T12:00:49.462Z,11.73
2023-01-26T12:03:30.425Z,11.07
2023-01-26T12:06:02.408Z,11.35
2023-01-26T12:08:39.020Z,11.48
2023-01-26T12:11:28.211Z,11.20
2023-01-26T12:14:04.705Z,10.98
2023-01-26T12:16:39.143Z,11.12
2023-01-26T12:19:29.209Z,10.43
2023-01-26T12:22:03.407Z,12.90
2023-01-26T12:25:08.182Z,10.93
2023-01-26T12:27:42.792Z,11.38
2023-01-26T12:30:25.407Z,10.75
2023-01-26T12:32:53.174Z,11.18
2023-01-26T12:35:35.565Z,11.45
2023-01-26T12:38:18.164Z,10.93
2023-01-26T12:40:55.891Z,11.75
2023-01-26T12:43:48.749Z,10.77
2023-01-26T12:46:17.685Z,11.40
2023-01-26T12:48:56.369Z,11.52
2023-01-26T12:51:29.480Z,11.52
2023-01-26T12:54:07.939Z,11.32
2023-01-26T12:56:41.167Z,11.10
2023-01-26T12:59:46.401Z,10.70
2023-01-26T13:02:16.221Z,11.20
2023-01-26T13:04:44.355Z,12.63
2023-01-26T13:07:34.670Z,12.77
2023-01-26T13:10:10.426Z,12.52
2023-01-26T13:12:55.868Z,12.57
2023-01-26T13:15:26.875Z,13.10
2023-01-26T13:17:56.900Z,13.88
2023-01-26T13:20:42.211Z,12.57
2023-01-26T13:23:28.203Z,13.95
2023-01-26T13:26:15.316Z,13.20
2023-01-26T13:28:44.117Z,12.30
2023-01-26T13:31:12.603Z,15.05
2023-01-26T13:33:51.653Z,13.05
2023-01-26T13:36:21.249Z,15.45
2023-01-26T13:38:56.257Z,12.02
2023-01-26T13:41:23.927Z,11.95
2023-01-26T13:44:11.947Z,10.85
2023-01-26T13:46:47.428Z,11.50
2023-01-26T13:49:37.760Z,12.73
2023-01-26T13:52:31.475Z,12.07
2023-01-26T13:55:00.654Z,12.32
2023-01-26T13:57:30.129Z,13.35
2023-01-26T14:00:00.851Z,12.25
2023-01-26T14:02:34.083Z,13.07
2023-01-26T14:05:04.311Z,13.85
2023-01-26T14:07:36.154Z,17.42
2023-01-26T14:10:04.858Z,14.90
2023-01-26T14:12:43.606Z,18.02
2023-01-26T14:15:23.426Z,18.20
2023-01-26T14:17:55.986Z,20.83
2023-01-26T14:20:31.049Z,22.87
2023-01-26T14:25:35.679Z,13.60
2023-01-26T14:28:03.622Z,15.00
2023-01-26T14:30:34.320Z,12.88
2023-01-26T14:33:05.670Z,11.65
2023-01-26T14:35:33.745Z,11.60
2023-01-26T14:38:13.111Z,12.68
2023-01-26T14:40:48.304Z,12.65
2023-01-26T14:45:50.447Z,12.50
2023-01-26T14:48:20.272Z,14.20
2023-01-26T14:50:48.404Z,12.77
2023-01-26T14:53:23.298Z,12.45
2023-01-26T14:55:52.298Z,11.95
2023-01-26T14:58:23.391Z,14.63
2023-01-26T15:00:51.677Z,12.10
2023-01-26T15:03:25.061Z,11.55
2023-01-26T15:06:15.279Z,12.43
2023-01-26T15:08:56.178Z,14.43
2023-01-26T15:11:51.199Z,12.30
2023-01-26T15:14:49.260Z,13.62
2023-01-26T15:17:39.645Z,13.38
2023-01-26T15:20:19.545Z,13.00
2023-01-26T15:22:52.444Z,14.10
2023-01-26T15:25:23.507Z,13.70
2023-01-26T15:27:53.471Z,14.15
2023-01-26T15:30:31.044Z,14.15
2023-01-26T15:32:59.174Z,13.52
2023-01-26T15:35:29.019Z,14.20
2023-01-26T15:38:13.719Z,13.88
2023-01-26T15:40:41.494Z,14.77
2023-01-26T15:43:16.717Z,14.35
2023-01-26T15:45:51.720Z,14.40
2023-01-26T15:50:48.300Z,13.57
2023-01-26T15:53:20.120Z,13.85
2023-01-26T15:55:58.685Z,12.77
2023-01-26T15:58:26.719Z,12.13
2023-01-26T16:00:55.069Z,13.00
2023-01-26T16:03:22.950Z,12.25
2023-01-26T16:05:50.529Z,13.48
2023-01-26T16:08:19.004Z,13.20
2023-01-26T16:10:47.492Z,12.43
2023-01-26T16:13:18.043Z,14.63
2023-01-26T16:15:46.606Z,16.62
2023-01-26T16:18:14.693Z,16.12
2023-01-26T16:20:43.743Z,14.82
2023-01-26T16:23:25.461Z,15.35
2023-01-26T16:25:53.700Z,13.75
2023-01-26T16:28:22.368Z,13.27
2023-01-26T16:30:51.310Z,13.35
2023-01-26T16:33:24.684Z,14.05
2023-01-26T16:35:53.654Z,14.05
2023-01-26T16:38:21.543Z,15.30
2023-01-26T16:40:49.383Z,14.52
2023-01-26T16:43:23.823Z,15.45
2023-01-26T16:45:52.769Z,15.75
2023-01-26T16:48:21.068Z,16.37
2023-01-26T16:50:51.581Z,17.67
2023-01-26T16:53:31.333Z,20.10
2023-01-26T16:55:59.829Z,12.55
2023-01-26T16:58:28.082Z,11.65
2023-01-26T17:00:56.788Z,10.13
2023-01-26T17:03:24.537Z,10.07
2023-01-26T17:05:52.614Z,11.52
2023-01-26T17:08:20.850Z,10.13
2023-01-26T17:11:01.499Z,9.98
2023-01-26T17:13:31.616Z,8.80
2023-01-26T17:15:59.347Z,8.77
2023-01-26T17:18:27.178Z,10.77
2023-01-26T17:21:02.072Z,11.05
2023-01-26T17:23:29.952Z,10.05
2023-01-26T17:26:00.051Z,10.25
2023-01-26T17:28:27.906Z,9.77
2023-01-26T17:30:55.871Z,10.80
2023-01-26T17:33:23.950Z,10.50
2023-01-26T17:36:00.245Z,11.00
2023-01-26T17:38:28.245Z,10.63
2023-01-26T17:40:56.967Z,10.90
2023-01-26T17:43:25.514Z,10.38
2023-01-26T17:46:05.654Z,11.20
2023-01-26T17:48:34.255Z,10.77
2023-01-26T17:51:06.077Z,12.18
2023-01-26T17:53:36.570Z,14.98
2023-01-26T17:56:06.018Z,20.58
2023-01-26T17:58:35.592Z,19.75
2023-01-26T18:01:04.800Z,19.02
2023-01-26T18:03:33.095Z,24.90
2023-01-26T18:06:01.637Z,34.90
2023-01-26T18:08:30.268Z,34.80
2023-01-26T18:11:01.503Z,28.05
2023-01-26T18:13:31.979Z,24.60
2023-01-26T18:16:01.172Z,14.65
2023-01-26T18:18:30.501Z,16.62
2023-01-26T18:20:58.635Z,18.90
2023-01-26T18:23:26.871Z,18.35
2023-01-26T18:25:54.640Z,18.85
2023-01-26T18:28:22.714Z,17.48
2023-01-26T18:30:51.064Z,15.75
2023-01-26T18:33:19.190Z,14.18
2023-01-26T18:35:48.947Z,13.52
2023-01-26T18:38:17.223Z,12.95
2023-01-26T18:40:44.885Z,13.07
2023-01-26T18:43:12.711Z,13.38
2023-01-26T18:45:43.173Z,12.40
2023-01-26T18:48:12.686Z,12.88
2023-01-26T18:50:41.067Z,13.25
2023-01-26T18:53:08.922Z,16.50
2023-01-26T18:55:38.232Z,17.17
2023-01-26T18:58:07.832Z,13.50
2023-01-26T19:00:36.438Z,14.25
2023-01-26T19:03:05.371Z,12.85
2023-01-26T19:05:34.896Z,12.85
2023-01-26T19:08:10.495Z,13.60
2023-01-26T19:10:41.504Z,13.93
2023-01-26T19:13:09.760Z,14.13
2023-01-26T19:15:37.887Z,13.50
2023-01-26T19:18:06.908Z,12.52
2023-01-26T19:20:36.548Z,11.25
2023-01-26T19:23:05.214Z,10.48
2023-01-26T19:25:37.050Z,10.68
2023-01-26T19:28:05.681Z,11.18
2023-01-26T19:30:36.813Z,11.45
2023-01-26T19:33:24.207Z,10.38
2023-01-26T19:35:52.949Z,10.65
2023-01-26T19:38:21.609Z,9.75
2023-01-26T19:40:51.853Z,9.68
2023-01-26T19:43:21.475Z,10.00
2023-01-26T19:45:53.498Z,10.93
2023-01-26T19:48:24.322Z,9.77
2023-01-26T19:51:03.820Z,9.85
2023-01-26T19:53:35.644Z,9.85
2023-01-26T19:56:29.529Z,9.70
2023-01-26T19:59:00.853Z,9.40
2023-01-26T20:01:33.910Z,11.32
2023-01-26T20:04:05.811Z,11.73
2023-01-26T20:06:37.607Z,10.10
2023-01-26T20:09:08.748Z,9.82
2023-01-26T20:11:37.468Z,10.18
2023-01-26T20:14:12.148Z,12.90
2023-01-26T20:16:42.080Z,12.18
2023-01-26T20:19:13.270Z,13.88
2023-01-26T20:21:41.645Z,14.87
2023-01-26T20:24:14.472Z,14.75
2023-01-26T20:26:44.838Z,13.95
2023-01-26T20:29:18.310Z,12.70
2023-01-26T20:31:48.588Z,13.23
2023-01-26T20:34:17.667Z,12.82
2023-01-26T20:36:46.485Z,14.18
2023-01-26T20:39:25.719Z,13.38
2023-01-26T20:41:55.596Z,13.77
2023-01-26T20:44:27.590Z,14.32
2023-01-26T20:46:56.081Z,14.38
2023-01-26T20:49:26.044Z,14.87
2023-01-26T20:51:54.144Z,16.33
2023-01-26T20:54:22.888Z,15.80
2023-01-26T20:56:52.022Z,14.38
2023-01-26T20:59:20.803Z,15.32
2023-01-26T21:01:48.873Z,15.07
2023-01-26T21:04:17.466Z,14.93
2023-01-26T21:06:46.133Z,15.00
2023-01-26T21:09:13.904Z,15.23
2023-01-26T21:11:42.659Z,17.23
2023-01-26T21:14:12.083Z,14.75
2023-01-26T21:16:40.592Z,14.90
2023-01-26T21:19:08.629Z,18.05
2023-01-26T21:21:36.781Z,17.10
2023-01-26T21:24:04.453Z,16.33
2023-01-26T21:26:32.909Z,16.55
2023-01-26T21:29:00.991Z,16.92
2023-01-26T21:31:30.612Z,16.25
2023-01-26T21:33:59.690Z,14.43
2023-01-26T21:36:29.236Z,15.27
2023-01-26T21:38:58.151Z,14.55
2023-01-26T21:41:46.827Z,14.10
2023-01-26T21:44:17.024Z,14.70
2023-01-26T21:46:45.855Z,17.25
2023-01-26T21:49:14.008Z,15.98
2023-01-26T21:52:00.451Z,14.18
2023-01-26T21:54:29.946Z,15.00
2023-01-26T21:56:58.397Z,14.95
2023-01-26T21:59:25.969Z,15.20
2023-01-26T22:01:55.123Z,15.05
2023-01-26T22:04:28.189Z,14.40
2023-01-26T22:06:58.544Z,14.63
2023-01-26T22:09:26.350Z,15.20
2023-01-26T22:11:53.772Z,14.45
2023-01-26T22:14:23.092Z,13.80
2023-01-26T22:16:50.925Z,15.20
2023-01-26T22:19:18.347Z,13.45
2023-01-26T22:21:45.820Z,14.77
2023-01-26T22:24:14.528Z,15.45
2023-01-26T22:26:42.184Z,14.68
2023-01-26T22:29:11.712Z,17.37
2023-01-26T22:31:39.398Z,17.37
2023-01-26T22:34:07.033Z,14.65
2023-01-26T22:36:34.498Z,13.02
2023-01-26T22:39:02.880Z,14.10
2023-01-26T22:41:30.586Z,15.15
2023-01-26T22:43:59.708Z,20.77
2023-01-26T22:46:29.218Z,15.20
2023-01-26T22:48:58.194Z,13.73
2023-01-26T22:51:28.210Z,14.48
2023-01-26T22:53:57.096Z,12.85
2023-01-26T22:56:25.384Z,13.25
2023-01-26T22:58:59.082Z,11.57
2023-01-26T23:01:29.580Z,12.93
2023-01-26T23:03:57.649Z,12.25
2023-01-26T23:06:25.671Z,10.60
2023-01-26T23:08:53.805Z,11.63
2023-01-26T23:11:26.273Z,10.90
2023-01-26T23:13:55.408Z,10.68
2023-01-26T23:16:24.116Z,10.55
2023-01-26T23:18:53.375Z,11.60
2023-01-26T23:21:21.247Z,12.05
2023-01-26T23:23:49.302Z,12.20
2023-01-26T23:26:16.977Z,10.60
2023-01-26T23:28:45.046Z,10.52
2023-01-26T23:31:13.920Z,8.98
2023-01-26T23:33:42.167Z,10.13
2023-01-26T23:36:11.565Z,11.35
2023-01-26T23:38:39.091Z,10.18
2023-01-26T23:41:08.520Z,11.18
2023-01-26T23:43:36.665Z,10.55
2023-01-26T23:46:05.709Z,12.43
2023-01-26T23:48:33.391Z,11.70
2023-01-26T23:51:03.965Z,10.75
2023-01-26T23:53:32.011Z,11.05
2023-01-26T23:56:01.294Z,10.80
2023-01-26T23:58:28.985Z,10.23
